createdAt,value
2018-09-18T00:01:51.220Z,100913.26
2018-09-18T00:04:20.388Z,100908.91
2018-09-18T00:06:49.583Z,100909.12
2018-09-18T00:09:18.806Z,100906.38
2018-09-18T00:11:47.946Z,100897.72
2018-09-18T00:14:17.189Z,100904.67
2018-09-18T00:16:46.341Z,100903.83
2018-09-18T00:19:15.640Z,100901.55
2018-09-18T00:21:44.750Z,100902.28
2018-09-18T00:24:14.006Z,100896.16
2018-09-18T00:26:43.188Z,100894.70
2018-09-18T00:29:12.545Z,100899.79
2018-09-18T00:31:41.786Z,100888.03
2018-09-18T00:34:10.982Z,100888.77
2018-09-18T00:36:40.171Z,100891.01
2018-09-18T00:39:10.303Z,100879.73
2018-09-18T00:41:39.544Z,100880.30
2018-09-18T00:44:08.839Z,100891.61
2018-09-18T00:46:38.057Z,100883.53
2018-09-18T00:49:07.183Z,100881.00
2018-09-18T00:51:36.557Z,100877.79
2018-09-18T00:54:05.757Z,100880.70
2018-09-18T00:56:35.099Z,100874.48
2018-09-18T00:59:04.302Z,100878.73
2018-09-18T01:01:33.579Z,100865.08
2018-09-18T01:04:02.970Z,100869.97
2018-09-18T01:06:32.140Z,100867.04
2018-09-18T01:09:01.368Z,100863.95
2018-09-18T01:11:30.639Z,100860.85
2018-09-18T01:13:59.807Z,100859.24
2018-09-18T01:16:29.065Z,100865.73
2018-09-18T01:18:58.224Z,100859.12
2018-09-18T01:21:27.414Z,100859.70
2018-09-18T01:23:56.613Z,100856.43
2018-09-18T01:26:25.815Z,100850.19
2018-09-18T01:28:55.061Z,100853.80
2018-09-18T01:31:24.179Z,100849.09
2018-09-18T01:33:53.363Z,100846.67
2018-09-18T01:36:22.513Z,100849.67
2018-09-18T01:38:51.647Z,100842.89
2018-09-18T01:41:20.917Z,100846.09
2018-09-18T01:43:50.208Z,100843.92
2018-09-18T01:46:19.309Z,100847.66
2018-09-18T01:48:48.553Z,100846.06
2018-09-18T01:51:17.720Z,100842.10
2018-09-18T01:53:46.949Z,100838.44
2018-09-18T01:56:16.148Z,100844.95
2018-09-18T01:58:45.332Z,100841.58
2018-09-18T02:01:14.550Z,100834.70
2018-09-18T02:03:43.674Z,100838.83
2018-09-18T02:06:12.885Z,100832.34
2018-09-18T02:08:42.135Z,100827.64
2018-09-18T02:11:11.480Z,100829.28
2018-09-18T02:13:40.748Z,100823.65
2018-09-18T02:16:10.061Z,100830.13
2018-09-18T02:18:39.250Z,100823.75
2018-09-18T02:21:08.549Z,100824.21
2018-09-18T02:23:37.806Z,100829.66
2018-09-18T02:26:07.155Z,100818.94
2018-09-18T02:28:36.289Z,100821.01
2018-09-18T02:31:05.494Z,100825.89
2018-09-18T02:33:34.692Z,100819.97
2018-09-18T02:36:04.491Z,100827.42
2018-09-18T02:38:33.695Z,100834.58
2018-09-18T02:41:02.948Z,100816.66
2018-09-18T02:43:32.164Z,100821.19
2018-09-18T02:46:01.298Z,100818.94
2018-09-18T02:48:30.599Z,100815.83
2018-09-18T02:50:59.943Z,100811.77
2018-09-18T02:53:29.177Z,100813.37
2018-09-18T02:55:58.367Z,100815.14
2018-09-18T02:58:27.613Z,100816.28
2018-09-18T03:00:56.807Z,100812.22
2018-09-18T03:03:26.005Z,100804.69
2018-09-18T03:05:55.211Z,100808.64
2018-09-18T03:08:24.436Z,100809.86
2018-09-18T03:10:53.579Z,100805.38
2018-09-18T03:13:22.843Z,100796.32
2018-09-18T03:15:51.951Z,100806.58
2018-09-18T03:18:21.463Z,100808.28
2018-09-18T03:20:50.705Z,100803.77
2018-09-18T03:23:19.825Z,100804.23
2018-09-18T03:25:49.095Z,100803.66
2018-09-18T03:28:18.420Z,100802.73
2018-09-18T03:30:47.646Z,100794.61
2018-09-18T03:33:16.786Z,100791.41
2018-09-18T03:35:46.510Z,100794.61
2018-09-18T03:38:15.570Z,100792.65
2018-09-18T03:40:44.798Z,100789.91
2018-09-18T03:43:14.047Z,100790.20
2018-09-18T03:45:43.190Z,100784.64
2018-09-18T03:48:12.374Z,100783.89
2018-09-18T03:50:41.667Z,100780.12
2018-09-18T03:53:10.833Z,100781.55
2018-09-18T03:55:40.066Z,100767.97
2018-09-18T03:58:09.238Z,100776.66
2018-09-18T04:00:38.400Z,100770.36
2018-09-18T04:03:07.574Z,100766.48
2018-09-18T04:05:36.815Z,100763.27
2018-09-18T04:08:06.151Z,100770.36
2018-09-18T04:10:35.361Z,100761.38
2018-09-18T04:13:04.663Z,100760.92
2018-09-18T04:15:37.829Z,100764.80
2018-09-18T04:18:07.036Z,100751.70
2018-09-18T04:20:36.191Z,100754.05
2018-09-18T04:23:05.556Z,100758.11
2018-09-18T04:25:34.680Z,100756.80
2018-09-18T04:28:03.911Z,100755.30
2018-09-18T04:30:33.123Z,100755.20
2018-09-18T04:33:02.352Z,100747.57
2018-09-18T04:35:31.634Z,100744.27
2018-09-18T04:38:00.860Z,100736.00
2018-09-18T04:40:30.060Z,100740.13
2018-09-18T04:42:59.266Z,100733.72
2018-09-18T04:45:28.510Z,100730.73
2018-09-18T04:47:57.650Z,100734.75
2018-09-18T04:50:26.812Z,100738.64
2018-09-18T04:52:55.953Z,100739.10
2018-09-18T04:55:25.251Z,100742.02
2018-09-18T04:57:54.404Z,100738.71
2018-09-18T05:00:23.672Z,100739.84
2018-09-18T05:02:52.872Z,100739.45
2018-09-18T05:05:22.052Z,100745.98
2018-09-18T05:07:51.295Z,100736.83
2018-09-18T05:10:20.578Z,100742.77
2018-09-18T05:12:49.792Z,100739.38
2018-09-18T05:15:18.967Z,100745.13
2018-09-18T05:17:48.244Z,100741.16
2018-09-18T05:20:17.426Z,100742.20
2018-09-18T05:22:46.571Z,100742.95
2018-09-18T05:25:15.715Z,100745.30
2018-09-18T05:27:44.923Z,100747.76
2018-09-18T05:30:14.063Z,100750.00
2018-09-18T05:32:43.353Z,100744.38
2018-09-18T05:35:12.573Z,100748.61
2018-09-18T05:37:41.799Z,100749.93
2018-09-18T05:40:10.975Z,100749.08
2018-09-18T05:42:40.415Z,100752.56
2018-09-18T05:45:09.645Z,100745.30
2018-09-18T05:47:38.896Z,100744.44
2018-09-18T05:50:08.141Z,100749.43
2018-09-18T05:52:37.384Z,100747.00
2018-09-18T05:55:06.807Z,100749.56
2018-09-18T05:57:35.975Z,100748.32
2018-09-18T06:00:05.358Z,100749.56
2018-09-18T06:02:34.738Z,100752.92
2018-09-18T06:05:03.911Z,100754.68
2018-09-18T06:07:33.078Z,100753.41
2018-09-18T06:10:02.337Z,100758.47
2018-09-18T06:12:31.506Z,100755.56
2018-09-18T06:15:00.580Z,100750.06
2018-09-18T06:17:29.721Z,100749.37
2018-09-18T06:19:58.851Z,100746.57
2018-09-18T06:22:28.067Z,100752.59
2018-09-18T06:24:57.259Z,100748.66
2018-09-18T06:27:26.439Z,100747.87
2018-09-18T06:29:55.741Z,100748.02
2018-09-18T06:32:24.927Z,100747.58
2018-09-18T06:34:54.048Z,100741.55
2018-09-18T06:37:23.245Z,100746.66
2018-09-18T06:39:52.472Z,100741.79
2018-09-18T06:42:21.728Z,100754.23
2018-09-18T06:44:50.855Z,100745.22
2018-09-18T06:47:20.044Z,100740.51
2018-09-18T06:49:49.212Z,100743.73
2018-09-18T06:52:18.389Z,100738.61
2018-09-18T06:54:47.571Z,100740.69
2018-09-18T06:57:16.829Z,100744.45
2018-09-18T06:59:45.940Z,100732.19
2018-09-18T07:02:15.324Z,100725.96
2018-09-18T07:04:44.430Z,100734.16
2018-09-18T07:07:13.642Z,100731.02
2018-09-18T07:09:42.858Z,100730.79
2018-09-18T07:12:12.035Z,100732.86
2018-09-18T07:14:41.279Z,100737.66
2018-09-18T07:17:10.455Z,100735.23
2018-09-18T07:19:39.750Z,100732.94
2018-09-18T07:22:08.963Z,100728.90
2018-09-18T07:24:38.146Z,100721.91
2018-09-18T07:27:07.484Z,100725.81
2018-09-18T07:29:36.722Z,100727.61
2018-09-18T07:32:05.922Z,100727.86
2018-09-18T07:34:35.039Z,100736.08
2018-09-18T07:37:04.300Z,100719.55
2018-09-18T07:39:33.461Z,100738.71
2018-09-18T07:42:02.567Z,100724.61
2018-09-18T07:44:31.892Z,100718.65
2018-09-18T07:47:01.096Z,100728.44
2018-09-18T07:49:30.309Z,100717.96
2018-09-18T07:51:59.525Z,100707.55
2018-09-18T07:54:28.820Z,100711.47
2018-09-18T07:56:57.958Z,100716.96
2018-09-18T07:59:27.132Z,100724.21
2018-09-18T08:01:56.417Z,100720.36
2018-09-18T08:04:25.531Z,100716.69
2018-09-18T08:06:54.741Z,100720.39
2018-09-18T08:09:23.953Z,100714.32
2018-09-18T08:11:53.132Z,100719.19
2018-09-18T08:14:22.427Z,100706.38
2018-09-18T08:16:51.675Z,100709.67
2018-09-18T08:19:20.872Z,100713.82
2018-09-18T08:21:49.955Z,100719.66
2018-09-18T08:24:19.136Z,100717.20
2018-09-18T08:26:48.337Z,100724.81
2018-09-18T08:29:17.487Z,100721.94
2018-09-18T08:31:46.628Z,100730.02
2018-09-18T08:34:15.801Z,100730.47
2018-09-18T08:36:44.943Z,100731.72
2018-09-18T08:39:14.135Z,100725.72
2018-09-18T08:41:43.403Z,100732.25
2018-09-18T08:44:12.518Z,100721.26
2018-09-18T08:46:41.823Z,100726.67
2018-09-18T08:49:11.135Z,100728.98
2018-09-18T08:51:40.427Z,100726.20
2018-09-18T08:54:09.619Z,100739.30
2018-09-18T08:56:38.861Z,100740.05
2018-09-18T08:59:08.127Z,100729.55
2018-09-18T09:01:37.326Z,100729.91
2018-09-18T09:04:06.537Z,100732.45
2018-09-18T09:06:35.834Z,100730.04
2018-09-18T09:09:09.471Z,100722.55
2018-09-18T09:11:38.535Z,100720.84
2018-09-18T09:14:07.914Z,100720.66
2018-09-18T09:16:37.055Z,100727.88
2018-09-18T09:19:06.243Z,100723.09
2018-09-18T09:21:35.514Z,100721.75
2018-09-18T09:24:04.695Z,100718.34
2018-09-18T09:26:33.847Z,100726.95
2018-09-18T09:29:03.082Z,100726.18
2018-09-18T09:31:32.322Z,100712.82
2018-09-18T09:34:01.550Z,100721.62
2018-09-18T09:36:30.626Z,100724.66
2018-09-18T09:38:59.832Z,100717.74
2018-09-18T09:41:28.986Z,100718.90
2018-09-18T09:43:58.080Z,100714.91
2018-09-18T09:46:27.327Z,100716.18
2018-09-18T09:48:56.520Z,100710.17
2018-09-18T09:51:25.705Z,100721.08
2018-09-18T09:53:54.854Z,100722.05
2018-09-18T09:56:23.977Z,100719.20
2018-09-18T09:58:53.124Z,100711.33
2018-09-18T10:01:27.678Z,100714.80
2018-09-18T10:03:57.145Z,100717.77
2018-09-18T10:06:26.752Z,100716.30
2018-09-18T10:08:56.601Z,100716.62
2018-09-18T10:11:25.726Z,100717.17
2018-09-18T10:13:54.983Z,100713.91
2018-09-18T10:16:24.155Z,100710.64
2018-09-18T10:18:53.359Z,100701.11
2018-09-18T10:21:22.564Z,100702.42
2018-09-18T10:26:33.177Z,100704.55
2018-09-18T10:29:02.307Z,100698.41
2018-09-18T10:31:31.550Z,100691.78
2018-09-18T10:34:01.034Z,100697.80
2018-09-18T10:36:30.254Z,100691.39
2018-09-18T10:38:59.429Z,100690.25
2018-09-18T10:41:28.710Z,100688.08
2018-09-18T10:43:57.725Z,100687.83
2018-09-18T10:46:26.906Z,100686.83
2018-09-18T10:48:57.026Z,100691.13
2018-09-18T10:51:26.360Z,100683.88
2018-09-18T10:53:55.866Z,100674.34
2018-09-18T10:56:24.997Z,100680.11
2018-09-18T10:58:54.163Z,100684.82
2018-09-18T11:01:23.304Z,100687.11
2018-09-18T11:03:52.493Z,100677.50
2018-09-18T11:06:21.604Z,100669.52
2018-09-18T11:08:50.736Z,100665.62
2018-09-18T11:11:19.960Z,100665.39
2018-09-18T11:13:49.216Z,100665.48
2018-09-18T11:16:18.363Z,100665.69
2018-09-18T11:18:47.590Z,100664.91
2018-09-18T11:21:16.709Z,100661.03
2018-09-18T11:23:45.920Z,100660.33
2018-09-18T11:26:15.064Z,100662.50
2018-09-18T11:28:44.208Z,100654.30
2018-09-18T11:31:13.406Z,100664.13
2018-09-18T11:33:42.567Z,100660.97
2018-09-18T11:36:11.861Z,100660.87
2018-09-18T11:38:41.008Z,100669.66
2018-09-18T11:41:10.145Z,100663.67
2018-09-18T11:43:39.311Z,100657.72
2018-09-18T11:46:08.657Z,100660.00
2018-09-18T11:48:37.918Z,100662.27
2018-09-18T11:51:07.174Z,100655.92
2018-09-18T11:53:36.319Z,100650.82
2018-09-18T11:56:05.557Z,100646.27
2018-09-18T11:58:34.718Z,100652.89
2018-09-18T12:01:04.455Z,100655.83
2018-09-18T12:03:33.643Z,100648.03
2018-09-18T12:06:02.846Z,100649.17
2018-09-18T12:08:31.936Z,100647.64
2018-09-18T12:11:01.478Z,100637.28
2018-09-18T12:13:30.616Z,100637.73
2018-09-18T12:15:59.775Z,100644.05
2018-09-18T12:18:29.018Z,100636.01
2018-09-18T12:20:58.139Z,100647.06
2018-09-18T12:23:27.578Z,100645.16
2018-09-18T12:25:56.920Z,100635.00
2018-09-18T12:28:26.075Z,100636.86
2018-09-18T12:30:55.150Z,100633.59
2018-09-18T12:33:24.431Z,100631.22
2018-09-18T12:35:53.581Z,100628.58
2018-09-18T12:38:22.735Z,100632.97
2018-09-18T12:40:51.955Z,100628.34
2018-09-18T12:43:21.114Z,100636.41
2018-09-18T12:45:50.311Z,100631.40
2018-09-18T12:48:19.578Z,100636.70
2018-09-18T12:50:48.822Z,100630.86
2018-09-18T12:53:17.930Z,100630.64
2018-09-18T12:55:47.207Z,100631.23
2018-09-18T12:58:16.341Z,100620.80
2018-09-18T13:00:45.519Z,100612.80
2018-09-18T13:03:14.730Z,100618.33
2018-09-18T13:05:44.023Z,100622.91
2018-09-18T13:08:13.156Z,100621.70
2018-09-18T13:10:42.375Z,100620.35
2018-09-18T13:13:11.499Z,100627.05
2018-09-18T13:15:40.773Z,100621.08
2018-09-18T13:18:09.911Z,100615.78
2018-09-18T13:20:39.151Z,100618.19
2018-09-18T13:23:08.279Z,100615.70
2018-09-18T13:25:37.596Z,100621.77
2018-09-18T13:28:06.384Z,100624.92
2018-09-18T13:30:35.535Z,100619.11
2018-09-18T13:33:04.737Z,100620.57
2018-09-18T13:35:33.878Z,100630.62
2018-09-18T13:38:03.009Z,100630.04
2018-09-18T13:40:32.308Z,100626.20
2018-09-18T13:43:01.531Z,100630.66
2018-09-18T13:45:30.700Z,100622.88
2018-09-18T13:47:59.987Z,100621.81
2018-09-18T13:50:29.257Z,100624.52
2018-09-18T13:52:58.303Z,100633.83
2018-09-18T13:55:27.614Z,100630.13
2018-09-18T13:57:56.823Z,100640.31
2018-09-18T14:00:25.946Z,100632.11
2018-09-18T14:02:55.115Z,100634.45
2018-09-18T14:05:24.261Z,100632.14
2018-09-18T14:07:53.459Z,100632.91
2018-09-18T14:10:22.654Z,100626.40
2018-09-18T14:12:51.959Z,100627.28
2018-09-18T14:15:21.184Z,100630.48
2018-09-18T14:17:50.519Z,100635.86
2018-09-18T14:20:19.762Z,100632.39
2018-09-18T14:22:48.870Z,100631.42
2018-09-18T14:25:18.162Z,100631.84
2018-09-18T14:27:47.314Z,100637.58
2018-09-18T14:30:16.433Z,100646.00
2018-09-18T14:32:45.674Z,100648.06
2018-09-18T14:35:14.797Z,100643.40
2018-09-18T14:37:44.077Z,100649.00
2018-09-18T14:40:13.281Z,100652.21
2018-09-18T14:42:42.391Z,100652.59
2018-09-18T14:45:11.597Z,100663.64
2018-09-18T14:47:40.841Z,100662.50
2018-09-18T14:50:09.999Z,100667.09
2018-09-18T14:52:39.129Z,100675.06
2018-09-18T14:55:08.373Z,100676.05
2018-09-18T14:57:37.588Z,100673.38
2018-09-18T15:00:06.814Z,100666.95
2018-09-18T15:02:36.169Z,100673.39
2018-09-18T15:05:05.361Z,100670.38
2018-09-18T15:07:34.477Z,100675.55
2018-09-18T15:10:03.783Z,100681.97
2018-09-18T15:12:33.066Z,100678.58
2018-09-18T15:15:02.283Z,100681.77
2018-09-18T15:17:34.541Z,100679.36
2018-09-18T15:20:03.732Z,100675.14
2018-09-18T15:22:32.875Z,100683.12
2018-09-18T15:25:02.073Z,100684.06
2018-09-18T15:27:31.334Z,100684.74
2018-09-18T15:30:00.460Z,100686.93
2018-09-18T15:32:29.707Z,100693.84
2018-09-18T15:34:58.866Z,100687.10
2018-09-18T15:37:28.132Z,100694.72
2018-09-18T15:39:57.672Z,100687.35
2018-09-18T15:42:26.864Z,100697.92
2018-09-18T15:44:56.096Z,100697.27
2018-09-18T15:47:25.424Z,100704.44
2018-09-18T15:49:54.626Z,100707.66
2018-09-18T15:52:23.763Z,100709.31
2018-09-18T15:54:53.060Z,100707.63
2018-09-18T15:57:22.363Z,100711.66
2018-09-18T15:59:51.885Z,100718.02
2018-09-18T16:02:21.150Z,100707.61
2018-09-18T16:04:50.303Z,100699.56
2018-09-18T16:07:19.465Z,100706.70
2018-09-18T16:09:48.801Z,100712.37
2018-09-18T16:12:18.064Z,100715.72
2018-09-18T16:14:47.346Z,100716.88
2018-09-18T16:17:16.455Z,100712.50
2018-09-18T16:19:45.752Z,100707.80
2018-09-18T16:22:14.902Z,100707.73
2018-09-18T16:24:44.894Z,100699.66
2018-09-18T16:27:14.008Z,100708.00
2018-09-18T16:29:43.361Z,100712.48
2018-09-18T16:32:12.678Z,100710.24
2018-09-18T16:34:41.907Z,100717.95
2018-09-18T16:37:11.144Z,100717.77
2018-09-18T16:39:40.341Z,100719.22
2018-09-18T16:42:09.554Z,100712.52
2018-09-18T16:44:38.794Z,100715.28
2018-09-18T16:47:08.181Z,100715.77
2018-09-18T17:31:15.500Z,100792.75
2018-09-18T17:33:44.940Z,100802.87
2018-09-18T17:36:14.400Z,100812.04
2018-09-18T18:17:09.177Z,100906.86
2018-09-18T18:19:38.788Z,100903.97
2018-09-18T20:59:07.065Z,101069.23
2018-09-18T21:01:36.732Z,101076.66
2018-09-18T21:10:17.210Z,101076.91
2018-09-18T21:12:46.528Z,101074.88
2018-09-18T21:15:15.828Z,101083.70
2018-09-18T21:17:45.584Z,101084.02
2018-09-18T21:20:15.023Z,101081.78
2018-09-18T21:26:06.200Z,101088.72
2018-09-18T21:28:35.590Z,101092.14
2018-09-18T21:31:05.118Z,101095.83
2018-09-18T21:33:35.334Z,101096.02
2018-09-18T21:36:04.724Z,101095.84
2018-09-18T21:38:34.867Z,101098.95
2018-09-18T21:41:04.237Z,101100.39
2018-09-18T21:43:33.753Z,101109.26
2018-09-18T21:46:04.838Z,101112.12
2018-09-18T21:48:34.319Z,101112.30
2018-09-18T21:51:03.705Z,101115.91
2018-09-18T21:53:33.079Z,101115.60
2018-09-18T21:56:09.290Z,101114.36
2018-09-18T22:08:17.629Z,101132.53
2018-09-18T22:10:54.307Z,101139.81
2018-09-18T22:13:24.634Z,101147.81
2018-09-18T22:15:54.256Z,101147.36
2018-09-18T22:18:23.709Z,101147.75
2018-09-18T22:21:17.781Z,101148.20
2018-09-18T22:23:47.159Z,101152.34
2018-09-18T22:26:16.581Z,101150.66
2018-09-18T22:28:46.079Z,101156.23
2018-09-18T22:31:15.570Z,101164.44
2018-09-18T22:33:45.463Z,101169.90
2018-09-18T22:36:14.864Z,101167.14
2018-09-18T22:38:44.240Z,101160.28
2018-09-18T22:41:13.689Z,101158.00
2018-09-18T22:46:54.710Z,101160.45
2018-09-18T22:49:24.065Z,101166.30
2018-09-18T23:49:07.763Z,101192.02
2018-09-18T23:51:37.145Z,101194.86
2018-09-18T23:54:07.030Z,101192.98
2018-09-18T23:56:36.397Z,101190.24
2018-09-18T23:59:06.044Z,101197.96
